Manderfield, Utah
Current Conditions -  °F | °C
As of 8:52 AM on Friday 24 Oct 2014 (Local Time) from KMLF Reporting Station
Clear Clear  
Wind Chill: 37°   Ceiling: Unl
Heat Index: 43°   Visibility: 10mi
Dew Point: 29°   Wind: 10mph
Humidity: 58%   Direction: 190°S
Pressure: 30.24"   Gusts: NA
Location:  38.344°N, 112.579°W
Report Text: KMLF 241452Z AUTO 19009KT 10SM CLR 06/M02 A3024 RMK AO2 SLP212 T00611017 53013 TSNO
Loading
Personal Weather Stations






























Interactive Weather Map
Tropical Storm Tracking
New forecast layout! Learn more

10-Day Weather Forecast

Advertisements
Track Severe Weather on mobile